createdAt,value
2017-09-13T00:00:22.967Z,43.24
2017-09-13T00:01:31.983Z,43.04
2017-09-13T00:02:41.320Z,43.14
2017-09-13T00:03:50.659Z,43.14
2017-09-13T00:04:59.674Z,42.94
2017-09-13T00:06:08.369Z,43.24
2017-09-13T00:07:17.385Z,43.14
2017-09-13T00:08:26.718Z,43.14
2017-09-13T00:09:35.734Z,43.14
2017-09-13T00:10:44.429Z,42.94
2017-09-13T00:11:53.445Z,43.14
2017-09-13T00:13:03.098Z,43.14
2017-09-13T00:14:12.434Z,43.04
2017-09-13T00:15:21.129Z,42.85
2017-09-13T00:16:30.464Z,43.14
2017-09-13T00:17:39.160Z,42.94
2017-09-13T00:18:48.182Z,42.94
2017-09-13T00:19:57.212Z,42.85
2017-09-13T00:21:06.864Z,43.04
2017-09-13T00:22:15.563Z,43.04
2017-09-13T00:23:24.898Z,43.14
2017-09-13T00:24:33.596Z,43.24
2017-09-13T00:25:42.609Z,42.94
2017-09-13T00:26:51.305Z,42.94
2017-09-13T00:28:00.320Z,43.04
2017-09-13T00:29:09.662Z,43.14
2017-09-13T00:30:18.682Z,43.43
2017-09-13T00:31:28.659Z,43.24
2017-09-13T00:32:37.674Z,43.14
2017-09-13T00:33:46.368Z,43.14
2017-09-13T00:34:55.386Z,43.14
2017-09-13T00:36:04.080Z,43.24
2017-09-13T00:37:12.779Z,43.04
2017-09-13T00:38:21.475Z,43.33
2017-09-13T00:39:30.173Z,43.04
2017-09-13T00:40:40.150Z,43.04
2017-09-13T00:41:48.844Z,42.94
2017-09-13T00:42:58.505Z,43.33
2017-09-13T00:44:07.518Z,42.94
2017-09-13T00:45:16.851Z,43.24
2017-09-13T00:46:25.866Z,43.04
2017-09-13T00:47:34.890Z,43.04
2017-09-13T00:48:44.226Z,43.02
2017-09-13T00:49:53.566Z,43.14
2017-09-13T00:51:02.907Z,43.14
2017-09-13T00:52:11.922Z,42.93
2017-09-13T00:53:21.255Z,43.04
2017-09-13T00:54:30.910Z,43.12
2017-09-13T00:55:40.562Z,43.04
2017-09-13T00:56:49.577Z,43.02
2017-09-13T00:57:58.591Z,43.12
2017-09-13T00:59:07.929Z,43.33
2017-09-13T01:00:17.262Z,43.02
2017-09-13T01:01:25.956Z,43.12
2017-09-13T01:02:35.294Z,42.83
2017-09-13T01:03:44.305Z,43.02
2017-09-13T01:04:53.003Z,43.31
2017-09-13T01:06:01.699Z,43.12
2017-09-13T01:07:10.718Z,43.02
2017-09-13T01:08:20.389Z,43.31
2017-09-13T01:09:29.410Z,43.31
2017-09-13T01:10:38.106Z,43.02
2017-09-13T01:11:47.764Z,43.21
2017-09-13T01:12:57.421Z,43.21
2017-09-13T01:14:06.757Z,43.02
2017-09-13T01:15:16.091Z,43.31
2017-09-13T01:16:25.427Z,43.21
2017-09-13T01:17:35.083Z,42.93
2017-09-13T01:18:44.097Z,43.02
2017-09-13T01:19:52.792Z,43.12
2017-09-13T01:21:02.454Z,42.93
2017-09-13T01:22:11.469Z,43.12
2017-09-13T01:23:20.806Z,42.83
2017-09-13T01:24:29.823Z,42.93
2017-09-13T01:25:38.838Z,43.02
2017-09-13T01:26:47.854Z,43.12
2017-09-13T01:27:57.828Z,42.93
2017-09-13T01:29:06.523Z,42.93
2017-09-13T01:30:15.537Z,42.93
2017-09-13T01:31:24.872Z,42.83
2017-09-13T01:32:33.890Z,42.83
2017-09-13T01:33:43.227Z,43.02
2017-09-13T01:34:51.923Z,42.93
2017-09-13T01:36:00.619Z,42.73
2017-09-13T01:37:10.276Z,42.63
2017-09-13T01:38:19.289Z,42.83
2017-09-13T01:39:29.273Z,43.02
2017-09-13T01:40:38.607Z,42.93
2017-09-13T01:41:47.942Z,43.02
2017-09-13T01:42:57.279Z,42.93
2017-09-13T01:44:06.616Z,43.02
2017-09-13T01:45:15.338Z,43.12
2017-09-13T01:46:25.007Z,42.93
2017-09-13T01:47:34.993Z,43.12
2017-09-13T01:48:44.327Z,43.12
2017-09-13T01:49:53.024Z,43.12
2017-09-13T01:51:02.049Z,42.63
2017-09-13T01:52:11.068Z,42.63
2017-09-13T01:53:20.104Z,42.73
2017-09-13T01:54:29.104Z,42.54
2017-09-13T01:55:38.433Z,42.83
2017-09-13T01:56:47.133Z,42.54
2017-09-13T01:57:56.791Z,42.73
2017-09-13T01:59:05.495Z,42.73
2017-09-13T02:00:14.196Z,42.63
2017-09-13T02:01:23.859Z,42.63
2017-09-13T02:02:33.195Z,43.12
2017-09-13T02:03:42.550Z,43.12
2017-09-13T02:04:51.246Z,42.54
2017-09-13T02:06:00.260Z,42.44
2017-09-13T02:07:09.274Z,42.73
2017-09-13T02:08:17.970Z,43.02
2017-09-13T02:09:27.302Z,43.12
2017-09-13T02:10:37.271Z,43.02
2017-09-13T02:11:46.285Z,42.63
2017-09-13T02:12:55.299Z,43.02
2017-09-13T02:14:04.314Z,42.44
2017-09-13T02:15:13.648Z,42.73
2017-09-13T02:16:22.665Z,42.83
2017-09-13T02:17:32.000Z,43.02
2017-09-13T02:18:41.024Z,42.63
2017-09-13T02:19:50.038Z,43.02
2017-09-13T02:20:59.052Z,42.63
2017-09-13T02:22:08.384Z,42.73
2017-09-13T02:23:17.402Z,42.73
2017-09-13T02:24:26.743Z,43.02
2017-09-13T02:25:35.439Z,42.63
2017-09-13T02:26:44.775Z,43.02
2017-09-13T02:27:53.469Z,42.54
2017-09-13T02:29:02.803Z,42.63
2017-09-13T02:30:11.824Z,42.44
2017-09-13T02:31:20.840Z,42.63
2017-09-13T02:32:30.177Z,42.73
2017-09-13T02:33:39.520Z,42.44
2017-09-13T02:34:48.538Z,42.63
2017-09-13T02:35:57.877Z,42.93
2017-09-13T02:37:07.265Z,42.54
2017-09-13T02:38:16.281Z,42.63
2017-09-13T02:39:24.977Z,42.73
2017-09-13T02:40:33.674Z,43.12
2017-09-13T02:41:42.372Z,42.54
2017-09-13T02:42:51.068Z,42.73
2017-09-13T02:44:00.406Z,42.73
2017-09-13T02:45:09.422Z,43.02
2017-09-13T02:46:18.758Z,43.02
2017-09-13T02:47:27.778Z,42.83
2017-09-13T02:48:36.792Z,42.73
2017-09-13T02:49:45.812Z,42.54
2017-09-13T02:50:54.826Z,42.73
2017-09-13T02:52:04.164Z,42.63
2017-09-13T02:53:13.181Z,42.83
2017-09-13T02:54:23.163Z,42.73
2017-09-13T02:55:32.180Z,42.93
2017-09-13T02:56:41.837Z,43.12
2017-09-13T02:57:51.168Z,42.93
2017-09-13T02:58:59.877Z,42.83
2017-09-13T03:00:09.208Z,42.93
2017-09-13T03:01:18.863Z,42.83
2017-09-13T03:02:27.880Z,43.02
2017-09-13T03:03:37.214Z,43.12
2017-09-13T03:04:45.921Z,43.1
2017-09-13T03:05:54.937Z,42.93
2017-09-13T03:07:03.952Z,43.02
2017-09-13T03:08:12.645Z,42.83
2017-09-13T03:09:21.340Z,42.83
2017-09-13T03:10:30.996Z,43.02
2017-09-13T03:11:40.332Z,42.9
2017-09-13T03:12:49.346Z,43.02
2017-09-13T03:13:58.046Z,43.1
2017-09-13T03:15:06.740Z,43
2017-09-13T03:16:15.756Z,42.9
2017-09-13T03:17:25.417Z,42.93
2017-09-13T03:18:34.429Z,43
2017-09-13T03:19:43.766Z,42.8
2017-09-13T03:20:53.101Z,43
2017-09-13T03:22:03.077Z,43
2017-09-13T03:23:12.740Z,42.9
2017-09-13T03:24:22.714Z,43.12
2017-09-13T03:25:32.693Z,43.1
2017-09-13T03:26:41.384Z,43.1
2017-09-13T03:27:51.038Z,43.12
2017-09-13T03:29:00.057Z,43
2017-09-13T03:30:09.412Z,43.21
2017-09-13T03:31:18.766Z,42.9
2017-09-13T03:32:27.781Z,43.02
2017-09-13T03:33:36.795Z,43.19
2017-09-13T03:34:46.130Z,42.9
2017-09-13T03:35:54.839Z,43.19
2017-09-13T03:37:03.853Z,43
2017-09-13T03:38:13.509Z,43.1
2017-09-13T03:39:22.525Z,43.38
2017-09-13T03:40:31.221Z,43.1
2017-09-13T03:41:40.559Z,43.41
2017-09-13T03:42:49.254Z,43.29
2017-09-13T03:43:57.949Z,43.1
2017-09-13T03:45:07.282Z,43.1
2017-09-13T03:46:16.296Z,43.19
2017-09-13T03:47:25.634Z,43.19
2017-09-13T03:48:34.968Z,43.19
2017-09-13T03:49:43.663Z,43.29
2017-09-13T03:50:52.362Z,43.29
2017-09-13T03:52:01.058Z,43.38
2017-09-13T03:53:10.073Z,43.48
2017-09-13T03:54:19.089Z,43.29
2017-09-13T03:55:28.104Z,43.41
2017-09-13T03:56:36.800Z,43.1
2017-09-13T03:57:45.818Z,43.19
2017-09-13T03:58:54.515Z,43.19
2017-09-13T04:00:03.212Z,43.48
2017-09-13T04:01:12.230Z,43.38
2017-09-13T04:02:21.565Z,43.38
2017-09-13T04:03:30.898Z,43.38
2017-09-13T04:04:40.234Z,43.38
2017-09-13T04:05:48.929Z,43.29
2017-09-13T04:06:57.944Z,43.38
2017-09-13T04:08:07.284Z,43.38
2017-09-13T04:09:15.974Z,43.38
2017-09-13T04:10:25.308Z,43.38
2017-09-13T04:11:34.643Z,43.38
2017-09-13T04:12:43.662Z,43.19
2017-09-13T04:13:52.995Z,43.29
2017-09-13T04:15:02.010Z,43.48
2017-09-13T04:16:11.347Z,43.48
2017-09-13T04:17:20.360Z,43.48
2017-09-13T04:18:29.056Z,43.29
2017-09-13T04:19:38.393Z,43.48
2017-09-13T04:20:47.090Z,43.38
2017-09-13T04:21:56.105Z,43.29
2017-09-13T04:23:05.120Z,43.38
2017-09-13T04:24:14.137Z,43.29
2017-09-13T04:25:23.792Z,43.38
2017-09-13T04:26:32.808Z,43.48
2017-09-13T04:27:41.502Z,43.19
2017-09-13T04:28:50.843Z,43.29
2017-09-13T04:29:59.861Z,43.29
2017-09-13T04:31:08.875Z,43.38
2017-09-13T04:32:18.218Z,43.1
2017-09-13T04:33:27.233Z,43
2017-09-13T04:34:35.930Z,43.19
2017-09-13T04:35:45.266Z,43.29
2017-09-13T04:36:54.283Z,43.19
2017-09-13T04:38:03.297Z,43.1
2017-09-13T04:39:13.271Z,43.1
2017-09-13T04:40:22.605Z,42.9
2017-09-13T04:41:31.621Z,43
2017-09-13T04:42:40.957Z,42.71
2017-09-13T04:43:49.652Z,42.83
2017-09-13T04:44:58.671Z,42.73
2017-09-13T04:46:07.369Z,43.1
2017-09-13T04:47:16.385Z,42.93
2017-09-13T04:48:26.042Z,42.71
2017-09-13T04:49:35.377Z,42.73
2017-09-13T04:50:44.393Z,43.29
2017-09-13T04:51:53.748Z,42.71
2017-09-13T04:53:03.090Z,42.63
2017-09-13T04:54:12.426Z,43
2017-09-13T04:55:21.127Z,42.93
2017-09-13T04:56:30.465Z,43.21
2017-09-13T04:57:39.161Z,42.73
2017-09-13T04:58:48.176Z,42.9
2017-09-13T04:59:56.872Z,42.93
2017-09-13T05:01:05.570Z,42.71
2017-09-13T05:02:14.583Z,42.73
2017-09-13T05:03:23.919Z,42.73
2017-09-13T05:04:33.572Z,43.21
2017-09-13T05:05:42.603Z,42.83
2017-09-13T05:06:52.257Z,42.73
2017-09-13T05:08:01.916Z,43.02
2017-09-13T05:09:11.574Z,43.12
2017-09-13T05:10:20.908Z,42.83
2017-09-13T05:11:30.252Z,42.44
2017-09-13T05:12:39.267Z,42.73
2017-09-13T05:13:48.281Z,42.93
2017-09-13T05:14:56.978Z,42.73
2017-09-13T05:16:06.950Z,42.93
2017-09-13T05:17:15.646Z,42.73
2017-09-13T05:18:24.340Z,42.73
2017-09-13T05:19:34.003Z,42.44
2017-09-13T05:20:42.702Z,42.73
2017-09-13T05:21:51.403Z,42.73
2017-09-13T05:23:00.413Z,42.73
2017-09-13T05:24:10.073Z,42.83
2017-09-13T05:25:19.098Z,42.63
2017-09-13T05:26:28.115Z,42.83
2017-09-13T05:27:38.090Z,42.83
2017-09-13T05:28:46.799Z,42.73
2017-09-13T05:29:55.816Z,42.63
2017-09-13T05:31:04.832Z,42.83
2017-09-13T05:32:14.169Z,42.83
2017-09-13T05:33:23.512Z,42.44
2017-09-13T05:34:33.167Z,42.44
2017-09-13T05:35:42.181Z,42.83
2017-09-13T05:36:51.835Z,42.63
2017-09-13T05:38:00.531Z,42.73
2017-09-13T05:39:09.226Z,42.44
2017-09-13T05:40:18.241Z,42.44
2017-09-13T05:41:27.579Z,42.44
2017-09-13T05:42:36.912Z,42.15
2017-09-13T05:43:45.928Z,42.44
2017-09-13T05:44:55.263Z,42.44
2017-09-13T05:46:04.277Z,42.93
2017-09-13T05:47:13.294Z,42.44
2017-09-13T05:48:22.311Z,42.73
2017-09-13T05:49:31.327Z,42.73
2017-09-13T05:50:40.663Z,42.73
2017-09-13T05:51:50.317Z,42.63
2017-09-13T05:52:59.654Z,42.63
2017-09-13T05:54:08.349Z,42.63
2017-09-13T05:55:17.364Z,42.73
2017-09-13T05:56:26.059Z,42.63
2017-09-13T05:57:35.712Z,42.73
2017-09-13T05:58:44.411Z,42.44
2017-09-13T05:59:53.424Z,42.73
2017-09-13T06:01:02.774Z,42.73
2017-09-13T06:02:11.799Z,42.63
2017-09-13T06:03:20.499Z,42.63
2017-09-13T06:04:29.196Z,42.83
2017-09-13T06:05:38.532Z,42.63
2017-09-13T06:06:47.547Z,42.73
2017-09-13T06:07:56.242Z,42.73
2017-09-13T06:09:05.257Z,42.93
2017-09-13T06:10:13.950Z,42.63
2017-09-13T06:11:23.303Z,42.83
2017-09-13T06:12:32.319Z,42.73
2017-09-13T06:13:41.017Z,42.63
2017-09-13T06:14:50.352Z,42.93
2017-09-13T06:15:59.366Z,43.31
2017-09-13T06:17:08.063Z,42.83
2017-09-13T06:18:17.082Z,42.83
2017-09-13T06:19:25.782Z,42.44
2017-09-13T06:20:34.478Z,42.44
2017-09-13T06:21:43.817Z,42.35
2017-09-13T06:22:53.150Z,42.83
2017-09-13T06:24:02.486Z,42.25
2017-09-13T06:25:11.501Z,42.15
2017-09-13T06:26:20.853Z,42.93
2017-09-13T06:27:29.549Z,42.73
2017-09-13T06:28:38.563Z,42.35
2017-09-13T06:29:48.219Z,42.73
2017-09-13T06:30:57.875Z,42.63
2017-09-13T06:32:06.889Z,42.73
2017-09-13T06:33:16.543Z,42.73
2017-09-13T06:34:25.879Z,42.35
2017-09-13T06:35:35.853Z,42.93
2017-09-13T06:36:45.508Z,42.63
2017-09-13T06:37:55.165Z,42.73
2017-09-13T06:39:04.821Z,42.63
2017-09-13T06:40:13.517Z,42.83
2017-09-13T06:41:22.531Z,42.73
2017-09-13T06:42:31.892Z,42.75
2017-09-13T06:43:40.909Z,42.73
2017-09-13T06:44:50.243Z,42.83
2017-09-13T06:45:59.898Z,42.35
2017-09-13T06:47:08.915Z,42.44
2017-09-13T06:48:18.569Z,42.35
2017-09-13T06:49:28.224Z,42.44
2017-09-13T06:50:37.882Z,42.44
2017-09-13T06:51:46.899Z,42.35
2017-09-13T06:52:55.922Z,42.25
2017-09-13T06:54:04.617Z,42.93
2017-09-13T06:55:13.954Z,42.35
2017-09-13T06:56:23.613Z,42.93
2017-09-13T06:57:32.627Z,42.36
2017-09-13T06:58:41.640Z,42.63
2017-09-13T06:59:50.973Z,42.63
2017-09-13T07:00:59.671Z,42.36
2017-09-13T07:02:08.719Z,42.56
2017-09-13T07:03:17.737Z,42.56
2017-09-13T07:04:27.073Z,42.56
2017-09-13T07:05:36.733Z,42.46
2017-09-13T07:06:46.068Z,42.36
2017-09-13T07:07:55.734Z,42.36
2017-09-13T07:09:05.067Z,42.08
2017-09-13T07:10:14.409Z,42.27
2017-09-13T07:11:23.424Z,42.18
2017-09-13T07:12:32.440Z,41.98
2017-09-13T07:13:41.787Z,42.18
2017-09-13T07:14:51.446Z,42.08
2017-09-13T07:16:00.143Z,41.88
2017-09-13T07:17:09.169Z,41.88
2017-09-13T07:18:17.868Z,41.69
2017-09-13T07:19:26.564Z,41.98
2017-09-13T07:20:35.582Z,41.69
2017-09-13T07:21:44.600Z,41.69
2017-09-13T07:22:53.299Z,41.69
2017-09-13T07:24:03.295Z,41.6
2017-09-13T07:25:12.952Z,41.69
2017-09-13T07:26:21.647Z,42.08
2017-09-13T07:27:30.346Z,41.02
2017-09-13T07:28:39.677Z,40.92
2017-09-13T07:29:48.373Z,41.5
2017-09-13T07:30:57.717Z,41.6
2017-09-13T07:32:06.736Z,41.5
2017-09-13T07:33:16.395Z,41.69
2017-09-13T07:34:25.733Z,42.1
2017-09-13T07:35:35.393Z,42.18
2017-09-13T07:36:44.410Z,40.92
2017-09-13T07:37:53.426Z,41.3
2017-09-13T07:39:02.121Z,41.13
2017-09-13T07:40:11.469Z,41.3
2017-09-13T07:41:20.490Z,41.42
2017-09-13T07:42:29.829Z,41.42
2017-09-13T07:43:38.846Z,41.23
2017-09-13T07:44:48.506Z,41.33
2017-09-13T07:45:57.205Z,41.23
2017-09-13T07:47:06.222Z,40.75
2017-09-13T07:48:15.237Z,40.47
2017-09-13T07:49:24.574Z,39.7
2017-09-13T07:50:33.588Z,39.51
2017-09-13T07:51:42.603Z,38.95
2017-09-13T07:52:51.619Z,37.81
2017-09-13T07:54:00.638Z,37.54
2017-09-13T07:55:10.294Z,36.49
2017-09-13T07:56:18.993Z,35.83
2017-09-13T07:57:28.014Z,35.07
2017-09-13T07:58:36.716Z,34.22
2017-09-13T07:59:46.052Z,33.26
2017-09-13T08:00:54.751Z,32.6
2017-09-13T08:02:04.094Z,31.74
2017-09-13T08:03:13.114Z,31.08
2017-09-13T08:04:22.137Z,30.02
2017-09-13T08:05:31.157Z,29.94
2017-09-13T08:06:40.499Z,28.99
2017-09-13T08:07:49.521Z,28.61
2017-09-13T08:08:59.823Z,28.51
2017-09-13T08:10:08.838Z,28.04
2017-09-13T08:11:17.535Z,27.94
2017-09-13T08:12:27.194Z,27.56
2017-09-13T08:13:36.537Z,27.47
2017-09-13T08:14:45.879Z,27.56
2017-09-13T08:15:55.219Z,28.14
2017-09-13T08:17:04.555Z,28.33
2017-09-13T08:18:13.574Z,28.61
2017-09-13T08:19:22.595Z,29.38
2017-09-13T08:20:31.936Z,29.47
2017-09-13T08:21:41.276Z,29.55
2017-09-13T08:22:50.619Z,29.94
2017-09-13T08:23:59.963Z,30.33
2017-09-13T08:25:08.983Z,30.8
2017-09-13T08:26:18.643Z,30.8
2017-09-13T08:27:27.343Z,31.27
2017-09-13T08:28:36.077Z,31.57
2017-09-13T08:29:44.746Z,31.74
2017-09-13T08:30:54.412Z,32.13
2017-09-13T08:32:03.111Z,32.32
2017-09-13T08:33:12.452Z,32.6
2017-09-13T08:34:21.150Z,33.09
2017-09-13T08:35:30.490Z,33.46
2017-09-13T08:36:40.150Z,33.65
2017-09-13T08:37:49.170Z,34.12
2017-09-13T08:38:58.512Z,34.61
2017-09-13T08:40:07.850Z,34.22
2017-09-13T08:41:16.549Z,34.97
2017-09-13T08:42:25.887Z,35.27
2017-09-13T08:43:34.913Z,35.27
2017-09-13T08:44:43.936Z,35.56
2017-09-13T08:45:53.598Z,35.07
2017-09-13T08:47:03.259Z,35.75
2017-09-13T08:48:11.957Z,35.83
2017-09-13T08:49:21.950Z,35.93
2017-09-13T08:50:31.609Z,35.73
2017-09-13T08:51:40.948Z,36.22
2017-09-13T08:52:49.968Z,36.12
2017-09-13T08:53:58.989Z,36.12
2017-09-13T08:55:08.968Z,36.02
2017-09-13T08:56:18.306Z,36.12
2017-09-13T08:57:27.642Z,36.32
2017-09-13T08:58:36.339Z,36.32
2017-09-13T08:59:46.003Z,36.51
2017-09-13T09:00:55.347Z,36.68
2017-09-13T09:02:04.362Z,36.58
2017-09-13T09:03:13.380Z,36.88
2017-09-13T09:04:22.079Z,36.78
2017-09-13T09:05:31.418Z,37.36
2017-09-13T09:06:40.752Z,37.26
2017-09-13T09:07:49.769Z,37.36
2017-09-13T09:08:58.791Z,37.63
2017-09-13T09:10:07.809Z,37.54
2017-09-13T09:11:16.836Z,37.34
2017-09-13T09:12:25.853Z,37.24
2017-09-13T09:13:34.873Z,37.44
2017-09-13T09:14:43.889Z,37.44
2017-09-13T09:15:52.586Z,37.34
2017-09-13T09:17:02.568Z,37.36
2017-09-13T09:18:12.230Z,37.17
2017-09-13T09:19:20.930Z,37.36
2017-09-13T09:20:29.625Z,37.36
2017-09-13T09:21:39.288Z,37.46
2017-09-13T09:22:48.626Z,37.36
2017-09-13T09:23:57.644Z,37.73
2017-09-13T09:25:06.990Z,37.54
2017-09-13T09:26:16.346Z,37.82
2017-09-13T09:27:25.044Z,37.63
2017-09-13T09:28:34.071Z,37.92
2017-09-13T09:29:43.408Z,37.82
2017-09-13T09:30:52.434Z,38.12
2017-09-13T09:32:01.453Z,38.31
2017-09-13T09:33:10.794Z,38.31
2017-09-13T09:34:19.495Z,38.31
2017-09-13T09:35:29.158Z,38.31
2017-09-13T09:36:38.178Z,38.41
2017-09-13T09:37:47.513Z,38.41
2017-09-13T09:38:57.177Z,38.68
2017-09-13T09:40:06.520Z,38.48
2017-09-13T09:41:15.222Z,38.48
2017-09-13T09:42:24.238Z,38.78
2017-09-13T09:43:33.253Z,38.39
2017-09-13T09:44:42.910Z,38.2
2017-09-13T09:45:51.922Z,37.15
2017-09-13T09:47:01.259Z,36.78
2017-09-13T09:48:10.273Z,36.58
2017-09-13T09:49:19.934Z,36.78
2017-09-13T09:50:29.918Z,36.78
2017-09-13T09:51:39.576Z,37.26
2017-09-13T09:52:49.234Z,37.07
2017-09-13T09:53:57.930Z,37.17
2017-09-13T09:55:07.592Z,37.17
2017-09-13T09:56:16.607Z,37.07
2017-09-13T09:57:25.944Z,36.98
2017-09-13T09:58:34.964Z,37.26
2017-09-13T09:59:43.660Z,37.05
2017-09-13T10:00:53.324Z,37.24
2017-09-13T10:02:02.339Z,37.24
2017-09-13T10:03:12.314Z,37.63
2017-09-13T10:04:21.650Z,37.15
2017-09-13T10:05:30.992Z,37.54
2017-09-13T10:06:40.328Z,37.63
2017-09-13T10:07:49.026Z,37.44
2017-09-13T10:08:58.364Z,37.63
2017-09-13T10:10:07.702Z,37.63
2017-09-13T10:11:16.400Z,37.44
2017-09-13T10:12:25.421Z,37.54
2017-09-13T10:13:34.435Z,37.63
2017-09-13T10:14:43.455Z,37.73
2017-09-13T10:15:52.468Z,37.63
2017-09-13T10:17:01.804Z,37.73
2017-09-13T10:18:11.460Z,37.54
2017-09-13T10:19:20.476Z,37.92
2017-09-13T10:20:29.491Z,37.05
2017-09-13T10:21:39.155Z,36.4
2017-09-13T10:22:48.812Z,36.02
2017-09-13T10:23:57.827Z,35.05
2017-09-13T10:25:07.485Z,35.17
2017-09-13T10:26:16.184Z,35.17
2017-09-13T10:27:26.162Z,35.36
2017-09-13T10:28:35.181Z,35.27
2017-09-13T10:29:43.878Z,35.54
2017-09-13T10:30:53.215Z,35.54
2017-09-13T10:32:02.874Z,36.12
2017-09-13T10:33:11.891Z,36.02
2017-09-13T10:34:20.914Z,35.44
2017-09-13T10:35:29.612Z,33.91
2017-09-13T10:36:39.271Z,31.44
2017-09-13T10:37:48.293Z,29.05
2017-09-13T10:38:57.313Z,27.54
2017-09-13T10:40:06.014Z,26.12
2017-09-13T10:41:15.353Z,24.5
2017-09-13T10:42:25.009Z,22.96
2017-09-13T10:43:34.358Z,21.72
2017-09-13T10:44:43.375Z,20.96
2017-09-13T10:45:52.397Z,19.8
2017-09-13T10:47:01.095Z,18.94
2017-09-13T10:48:10.118Z,18.65
2017-09-13T10:49:19.141Z,17.98
2017-09-13T10:50:28.483Z,17.59
2017-09-13T10:51:37.507Z,17.69
2017-09-13T10:52:46.850Z,17.21
2017-09-13T10:53:55.869Z,17
2017-09-13T10:55:04.897Z,17.21
2017-09-13T10:56:14.238Z,17.4
2017-09-13T10:57:22.941Z,17.79
2017-09-13T10:58:31.646Z,17.88
2017-09-13T10:59:40.989Z,17.29
2017-09-13T11:00:49.692Z,17.59
2017-09-13T11:01:59.361Z,17.79
2017-09-13T11:03:09.019Z,18.27
2017-09-13T11:04:18.679Z,18.26
2017-09-13T11:05:28.343Z,19.33
2017-09-13T11:06:38.006Z,19.7
2017-09-13T11:07:47.032Z,20.18
2017-09-13T11:08:57.026Z,20.38
2017-09-13T11:10:06.689Z,20.56
2017-09-13T11:11:15.713Z,20.26
2017-09-13T11:12:24.737Z,20.48
2017-09-13T11:13:34.081Z,20.38
2017-09-13T11:14:43.425Z,21.34
2017-09-13T11:15:52.129Z,20.94
2017-09-13T11:17:01.471Z,20.56
2017-09-13T11:18:11.454Z,20.28
2017-09-13T11:19:20.798Z,21.25
2017-09-13T11:20:30.141Z,21.81
2017-09-13T11:21:39.479Z,22.38
2017-09-13T11:22:48.183Z,22.87
2017-09-13T11:23:57.205Z,23.35
2017-09-13T11:25:06.547Z,23.93
2017-09-13T11:26:15.891Z,23.72
2017-09-13T11:27:25.237Z,24.98
2017-09-13T11:28:34.579Z,25.74
2017-09-13T11:29:43.922Z,26.41
2017-09-13T11:30:53.262Z,26.98
2017-09-13T11:32:02.920Z,26.01
2017-09-13T11:33:11.626Z,24.95
2017-09-13T11:34:21.290Z,23.43
2017-09-13T11:35:30.634Z,22.37
2017-09-13T11:36:39.988Z,21.71
2017-09-13T11:37:49.011Z,21.72
2017-09-13T11:38:58.355Z,22.02
2017-09-13T11:40:07.375Z,21.42
2017-09-13T11:41:16.724Z,20.84
2017-09-13T11:42:26.065Z,20.66
2017-09-13T11:43:35.416Z,19.59
2017-09-13T11:44:44.756Z,19.32
2017-09-13T11:45:54.418Z,19.42
2017-09-13T11:47:03.438Z,20.09
2017-09-13T11:48:12.460Z,20.56
2017-09-13T11:49:21.803Z,19.98
2017-09-13T11:50:31.146Z,19.3
2017-09-13T11:51:39.849Z,18.73
2017-09-13T11:52:49.192Z,18.44
2017-09-13T11:53:58.214Z,17.77
2017-09-13T11:55:07.239Z,17.68
2017-09-13T11:56:15.943Z,17.97
2017-09-13T11:57:24.964Z,18.16
2017-09-13T11:58:33.679Z,18.16
2017-09-13T11:59:43.008Z,18.55
2017-09-13T12:00:52.992Z,19.51
2017-09-13T12:02:01.694Z,20.48
2017-09-13T12:03:11.045Z,21.24
2017-09-13T12:04:20.706Z,21.92
2017-09-13T12:05:29.729Z,22.58
2017-09-13T12:06:38.748Z,23.15
2017-09-13T12:07:47.769Z,24.12
2017-09-13T12:08:57.114Z,24.5
2017-09-13T12:10:06.133Z,24.78
2017-09-13T12:11:15.155Z,25.45
2017-09-13T12:12:24.175Z,25.63
2017-09-13T12:13:33.518Z,26.21
2017-09-13T12:14:42.539Z,26.4
2017-09-13T12:15:52.215Z,26.79
2017-09-13T12:17:01.231Z,27.06
2017-09-13T12:18:10.578Z,27.75
2017-09-13T12:19:19.279Z,27.75
2017-09-13T12:20:28.627Z,28.13
2017-09-13T12:21:37.651Z,28.7
2017-09-13T12:22:46.355Z,28.4
2017-09-13T12:23:55.374Z,28.99
2017-09-13T12:25:04.722Z,28.97
2017-09-13T12:26:14.062Z,29.16
2017-09-13T12:27:23.402Z,29.65
2017-09-13T12:28:32.101Z,29.44
2017-09-13T12:29:41.121Z,29.93
2017-09-13T12:30:49.819Z,30.32
2017-09-13T12:31:59.161Z,30.51
2017-09-13T12:33:08.499Z,30.61
2017-09-13T12:34:17.518Z,30.9
2017-09-13T12:35:26.216Z,30.69
2017-09-13T12:36:34.914Z,30.69
2017-09-13T12:37:44.253Z,30.98
2017-09-13T12:38:53.912Z,31.27
2017-09-13T12:40:02.934Z,31.74
2017-09-13T12:41:11.954Z,31.65
2017-09-13T12:42:20.986Z,31.35
2017-09-13T12:43:30.648Z,32.04
2017-09-13T12:44:39.346Z,31.74
2017-09-13T12:45:48.364Z,32.13
2017-09-13T12:46:57.703Z,32.23
2017-09-13T12:48:06.722Z,32.5
2017-09-13T12:49:16.066Z,32.5
2017-09-13T12:50:25.723Z,32.89
2017-09-13T12:51:34.741Z,32.89
2017-09-13T12:52:43.761Z,33.07
2017-09-13T12:53:53.111Z,33.07
2017-09-13T12:55:02.460Z,33.26
2017-09-13T12:56:11.800Z,33.36
2017-09-13T12:57:21.463Z,33.36
2017-09-13T12:58:30.801Z,33.56
2017-09-13T12:59:39.820Z,33.56
2017-09-13T13:00:49.805Z,33.84
2017-09-13T13:01:59.140Z,33.75
2017-09-13T13:03:08.800Z,33.73
2017-09-13T13:04:18.139Z,33.73
2017-09-13T13:05:26.837Z,33.92
2017-09-13T13:06:36.183Z,33.92
2017-09-13T13:07:45.522Z,34.22
2017-09-13T13:08:55.213Z,34.12
2017-09-13T13:10:05.188Z,34.22
2017-09-13T13:11:14.206Z,34.12
2017-09-13T13:12:22.901Z,34.61
2017-09-13T13:13:32.240Z,34.51
2017-09-13T13:14:41.894Z,34.78
2017-09-13T13:15:50.970Z,34.69
2017-09-13T13:17:00.003Z,34.97
2017-09-13T13:18:09.339Z,34.97
2017-09-13T13:19:18.036Z,35.46
2017-09-13T13:20:27.386Z,35.17
2017-09-13T13:21:36.404Z,35.44
2017-09-13T13:22:45.741Z,35.17
2017-09-13T13:23:54.438Z,35.15
2017-09-13T13:25:03.778Z,35.64
2017-09-13T13:26:12.793Z,35.83
2017-09-13T13:27:21.806Z,35.73
2017-09-13T13:28:30.826Z,36.12
2017-09-13T13:29:39.524Z,36.02
2017-09-13T13:30:48.864Z,36.12
2017-09-13T13:31:57.883Z,36.32
2017-09-13T13:33:06.902Z,36
2017-09-13T13:34:15.918Z,36.49
2017-09-13T13:35:25.258Z,36.4
2017-09-13T13:36:34.278Z,36.4
2017-09-13T13:37:43.296Z,36.68
2017-09-13T13:38:52.954Z,36.49
2017-09-13T13:40:02.607Z,36.68
2017-09-13T13:41:12.268Z,36.78
2017-09-13T13:42:20.965Z,37.36
2017-09-13T13:43:30.618Z,37.36
2017-09-13T13:44:39.955Z,37.15
2017-09-13T13:45:48.974Z,37.34
2017-09-13T13:46:57.672Z,37.15
2017-09-13T13:48:06.688Z,37.15
2017-09-13T13:49:15.713Z,37.15
2017-09-13T13:50:25.061Z,37.54
2017-09-13T13:51:34.716Z,37.34
2017-09-13T13:52:44.384Z,37.44
2017-09-13T13:53:53.728Z,37.15
2017-09-13T13:55:02.751Z,37.73
2017-09-13T13:56:11.449Z,37.82
2017-09-13T13:57:20.465Z,37.82
2017-09-13T13:58:29.480Z,37.82
2017-09-13T13:59:38.178Z,37.92
2017-09-13T14:00:47.196Z,37.54
2017-09-13T14:01:56.530Z,37.92
2017-09-13T14:03:05.226Z,38.12
2017-09-13T14:04:14.566Z,38.12
2017-09-13T14:05:24.583Z,38.31
2017-09-13T14:06:33.605Z,37.92
2017-09-13T14:07:43.262Z,38.21
2017-09-13T14:08:52.278Z,38.39
2017-09-13T14:10:01.295Z,38.29
2017-09-13T14:11:10.959Z,38.5
2017-09-13T14:12:19.656Z,38.79
2017-09-13T14:13:28.677Z,38.79
2017-09-13T14:14:38.359Z,38.68
2017-09-13T14:15:47.694Z,38.87
2017-09-13T14:16:57.349Z,38.78
2017-09-13T14:18:06.366Z,39.36
2017-09-13T14:19:15.064Z,39.06
2017-09-13T14:20:24.105Z,38.78
2017-09-13T14:21:33.423Z,39.06
2017-09-13T14:22:42.447Z,38.87
2017-09-13T14:23:51.145Z,39.26
2017-09-13T14:25:00.163Z,39.26
2017-09-13T14:26:09.502Z,39.55
2017-09-13T14:27:18.198Z,39.26
2017-09-13T14:28:27.217Z,39.26
2017-09-13T14:29:35.912Z,39.06
2017-09-13T14:30:44.933Z,38.97
2017-09-13T14:31:54.285Z,39.26
2017-09-13T14:33:04.037Z,39.26
2017-09-13T14:34:13.051Z,39.26
2017-09-13T14:35:22.026Z,39.06
2017-09-13T14:36:30.727Z,39.45
2017-09-13T14:37:40.063Z,39.06
2017-09-13T14:38:49.737Z,39.36
2017-09-13T14:39:58.753Z,39.16
2017-09-13T14:41:07.769Z,39.06
2017-09-13T14:42:17.430Z,39.26
2017-09-13T14:43:26.445Z,39.26
2017-09-13T14:44:35.779Z,39.36
2017-09-13T14:45:44.478Z,39.64
2017-09-13T14:46:53.496Z,39.55
2017-09-13T14:48:03.150Z,39.64
2017-09-13T14:49:12.168Z,39.64
2017-09-13T14:50:20.867Z,39.45
2017-09-13T14:51:29.882Z,39.45
2017-09-13T14:52:39.310Z,39.55
2017-09-13T14:53:48.750Z,39.64